Time;durP1;ratioP1;P1;durP2;ratioP2;P2;SDS_P1;SDS_P2;PMS_P1;PMS_P2;Temp;Humidity;BMP_temperature;BMP_pressure;BME280_temperature;BME280_humidity;BME280_pressure;Samples;Min_cycle;Max_cycle;Signal;HPM_P1;HPM_P2
2023/05/20 00:00:51;;;;;;;1.20;0.40;;;12.00;99.90;;;;;;5006007;28;20041;-77
2023/05/20 00:03:19;;;;;;;2.88;0.40;;;11.90;99.90;;;;;;5018194;28;20061;-77
2023/05/20 00:05:45;;;;;;;3.13;0.80;;;11.90;99.90;;;;;;5008169;28;20049;-78
2023/05/20 00:08:10;;;;;;;3.55;0.70;;;12.00;99.90;;;;;;5019605;28;20030;-78
2023/05/20 00:10:36;;;;;;;1.98;0.40;;;11.90;99.90;;;;;;5004575;28;20541;-79
2023/05/20 00:13:02;;;;;;;3.35;0.55;;;12.00;99.90;;;;;;5009035;28;20034;-78
2023/05/20 00:15:29;;;;;;;1.98;0.50;;;11.90;99.90;;;;;;5006566;28;20337;-77
2023/05/20 00:17:55;;;;;;;2.17;0.40;;;11.90;99.90;;;;;;4992836;28;20022;-78
2023/05/20 00:20:20;;;;;;;0.93;0.32;;;11.90;99.90;;;;;;4992030;28;20482;-78
2023/05/20 00:22:46;;;;;;;2.58;0.40;;;11.90;99.90;;;;;;5008095;28;20038;-76
2023/05/20 00:25:13;;;;;;;2.38;0.55;;;11.90;99.90;;;;;;5003096;28;20065;-77
2023/05/20 00:27:40;;;;;;;2.08;0.45;;;12.00;99.90;;;;;;4990768;28;20467;-79
2023/05/20 00:30:06;;;;;;;3.35;0.30;;;11.90;99.90;;;;;;4990001;28;20586;-77
2023/05/20 00:32:33;;;;;;;2.20;0.60;;;11.90;99.90;;;;;;5003761;28;20076;-77
2023/05/20 00:35:00;;;;;;;3.92;0.80;;;11.90;99.90;;;;;;5005998;28;20030;-78
2023/05/20 00:37:26;;;;;;;1.73;0.40;;;11.90;99.90;;;;;;5003269;28;20241;-79
2023/05/20 00:39:52;;;;;;;3.50;0.80;;;11.90;99.90;;;;;;5006755;28;20081;-77
2023/05/20 00:42:22;;;;;;;3.88;0.60;;;11.90;99.90;;;;;;5007244;28;20030;-76
2023/05/20 00:44:48;;;;;;;3.17;0.43;;;11.90;99.90;;;;;;4986934;28;20409;-78
2023/05/20 00:47:16;;;;;;;3.42;0.60;;;11.90;99.90;;;;;;5020905;28;20080;-78
2023/05/20 00:49:47;;;;;;;1.38;0.40;;;11.80;99.90;;;;;;4991886;28;20025;-77
2023/05/20 00:52:13;;;;;;;2.85;0.50;;;11.80;99.90;;;;;;4990811;28;20066;-77
2023/05/20 00:54:40;;;;;;;3.33;1.00;;;11.80;99.90;;;;;;5008252;28;20046;-78
2023/05/20 00:57:06;;;;;;;2.58;0.80;;;11.80;99.90;;;;;;5004145;28;20029;-78
2023/05/20 00:59:34;;;;;;;2.40;0.70;;;11.70;99.90;;;;;;4990371;28;20184;-78
2023/05/20 01:02:01;;;;;;;2.20;0.60;;;11.70;99.90;;;;;;4990610;28;20026;-78
2023/05/20 01:04:27;;;;;;;3.70;0.95;;;11.60;99.90;;;;;;4991171;28;20037;-78
2023/05/20 01:06:54;;;;;;;2.08;0.60;;;11.60;99.90;;;;;;4996934;28;20037;-78
2023/05/20 01:09:20;;;;;;;3.22;0.50;;;11.50;99.90;;;;;;4991599;28;20024;-78
2023/05/20 01:12:09;;;;;;;2.28;0.60;;;11.50;99.90;;;;;;5002913;28;20395;-78
2023/05/20 01:14:48;;;;;;;3.25;0.65;;;11.50;99.90;;;;;;4985488;28;20058;-78
2023/05/20 01:17:16;;;;;;;1.80;0.70;;;11.50;99.90;;;;;;5002196;28;20045;-77
2023/05/20 01:19:44;;;;;;;1.90;0.40;;;11.50;99.90;;;;;;5005562;28;20165;-78
2023/05/20 01:22:11;;;;;;;3.75;0.90;;;11.50;99.90;;;;;;5004785;28;20232;-78
2023/05/20 01:24:48;;;;;;;3.03;0.60;;;11.50;99.90;;;;;;5007163;28;20025;-79
2023/05/20 01:27:14;;;;;;;2.33;0.55;;;11.50;99.90;;;;;;5013799;28;20033;-78
2023/05/20 01:29:41;;;;;;;1.77;0.50;;;11.40;99.90;;;;;;5001044;28;20120;-78
2023/05/20 01:32:16;;;;;;;1.73;0.47;;;11.40;99.90;;;;;;5002520;28;20166;-77
2023/05/20 01:34:44;;;;;;;2.92;0.70;;;11.40;99.90;;;;;;4989723;28;20034;-78
2023/05/20 01:37:11;;;;;;;1.98;0.50;;;11.40;99.90;;;;;;5004301;28;20514;-77
2023/05/20 01:39:40;;;;;;;1.98;0.50;;;11.40;99.90;;;;;;5018074;28;20034;-76
2023/05/20 01:42:08;;;;;;;1.90;0.50;;;11.40;99.90;;;;;;4989145;28;20013;-79
2023/05/20 01:44:34;;;;;;;3.22;0.40;;;11.40;99.90;;;;;;5007137;28;20081;-78
2023/05/20 01:47:00;;;;;;;1.70;0.40;;;11.40;99.90;;;;;;5008136;28;20026;-78
2023/05/20 01:49:26;;;;;;;2.72;0.50;;;11.30;99.90;;;;;;5002345;28;20092;-79
2023/05/20 01:51:52;;;;;;;2.13;0.50;;;11.30;99.90;;;;;;4987358;28;20030;-79
2023/05/20 01:54:18;;;;;;;1.58;0.50;;;11.30;99.90;;;;;;5006181;28;20041;-78
2023/05/20 01:56:45;;;;;;;1.17;0.50;;;11.30;99.90;;;;;;5001062;28;20494;-77
2023/05/20 01:59:11;;;;;;;2.45;0.45;;;11.30;99.90;;;;;;5007088;28;20158;-78
2023/05/20 02:01:38;;;;;;;2.10;0.40;;;11.30;99.90;;;;;;4991454;28;20382;-78
2023/05/20 02:04:04;;;;;;;2.58;0.60;;;11.30;99.90;;;;;;5005922;28;20030;-78
2023/05/20 02:06:30;;;;;;;3.08;0.65;;;11.30;99.90;;;;;;5007518;28;20383;-78
2023/05/20 02:08:55;;;;;;;1.25;0.50;;;11.20;99.90;;;;;;5007689;28;20057;-78
2023/05/20 02:11:21;;;;;;;2.95;0.50;;;11.10;99.90;;;;;;5001206;28;20080;-79
2023/05/20 02:13:48;;;;;;;1.63;0.50;;;11.10;99.90;;;;;;5002137;28;20038;-77
2023/05/20 02:16:14;;;;;;;2.75;0.50;;;11.10;99.90;;;;;;4988365;28;20025;-77
2023/05/20 02:18:41;;;;;;;1.20;0.40;;;11.10;99.90;;;;;;5002659;28;20022;-77
2023/05/20 02:21:07;;;;;;;1.80;0.70;;;11.10;99.90;;;;;;4987921;28;20395;-78
2023/05/20 02:23:33;;;;;;;2.10;0.50;;;11.10;99.90;;;;;;5006316;28;20037;-77
2023/05/20 02:25:59;;;;;;;1.67;0.55;;;11.00;99.90;;;;;;5001410;28;20537;-76
2023/05/20 02:28:24;;;;;;;2.33;0.40;;;11.00;99.90;;;;;;5004178;28;20029;-78
2023/05/20 02:30:50;;;;;;;2.25;0.70;;;11.00;99.90;;;;;;4988575;28;20061;-77
2023/05/20 02:33:16;;;;;;;2.85;0.70;;;11.00;99.90;;;;;;4989505;28;20646;-78
2023/05/20 02:35:42;;;;;;;3.30;0.70;;;11.00;99.90;;;;;;5003244;28;20038;-77
2023/05/20 02:38:08;;;;;;;4.00;0.50;;;10.90;99.90;;;;;;5006668;28;20041;-77
2023/05/20 02:40:35;;;;;;;3.08;0.60;;;10.90;99.90;;;;;;4990059;28;20014;-78
2023/05/20 02:43:01;;;;;;;1.85;0.50;;;10.90;99.90;;;;;;5005861;28;20396;-78
2023/05/20 02:45:29;;;;;;;2.05;0.50;;;10.80;99.90;;;;;;5017576;28;20108;-77
2023/05/20 02:47:54;;;;;;;1.85;0.50;;;10.80;99.90;;;;;;5006480;28;20130;-78
2023/05/20 02:50:20;;;;;;;1.45;0.40;;;10.70;99.90;;;;;;5002064;28;20058;-78
2023/05/20 02:52:46;;;;;;;1.50;0.50;;;10.70;99.90;;;;;;5005294;28;20037;-77
2023/05/20 02:55:12;;;;;;;3.55;0.50;;;10.60;99.90;;;;;;5006437;28;20465;-77
2023/05/20 02:57:38;;;;;;;2.03;0.57;;;10.60;99.90;;;;;;5004159;28;20041;-78
2023/05/20 03:00:09;;;;;;;1.13;0.40;;;10.50;99.90;;;;;;5016436;28;20077;-78
2023/05/20 03:02:35;;;;;;;1.67;0.60;;;10.50;99.90;;;;;;5000231;28;20022;-76
2023/05/20 03:05:01;;;;;;;1.30;0.40;;;10.40;99.90;;;;;;4990735;28;20029;-77
2023/05/20 03:07:27;;;;;;;1.38;0.50;;;10.40;99.90;;;;;;4991965;28;20116;-77
2023/05/20 03:09:52;;;;;;;2.17;0.47;;;10.30;99.90;;;;;;5007296;28;20037;-77
2023/05/20 03:12:18;;;;;;;2.40;0.50;;;10.30;99.90;;;;;;4990707;28;20030;-76
2023/05/20 03:14:44;;;;;;;1.63;0.50;;;10.30;99.90;;;;;;5017610;28;20069;-77
2023/05/20 03:17:10;;;;;;;2.38;0.60;;;10.20;99.90;;;;;;5009205;28;20025;-77
2023/05/20 03:19:36;;;;;;;1.65;0.50;;;10.20;99.90;;;;;;5007358;28;20042;-77
2023/05/20 03:22:03;;;;;;;2.30;0.50;;;10.10;99.90;;;;;;4994392;28;20034;-78
2023/05/20 03:24:31;;;;;;;3.78;0.60;;;10.20;99.90;;;;;;5007355;28;20026;-78
2023/05/20 03:26:56;;;;;;;2.50;0.50;;;10.20;99.90;;;;;;5004154;28;20034;-78
2023/05/20 03:29:22;;;;;;;1.60;0.68;;;10.10;99.90;;;;;;5021847;28;20121;-78
2023/05/20 03:31:48;;;;;;;2.75;0.50;;;10.00;99.90;;;;;;5008007;28;20027;-78
2023/05/20 03:34:14;;;;;;;1.83;0.50;;;10.00;99.90;;;;;;5008502;28;20038;-78
2023/05/20 03:36:40;;;;;;;1.75;0.40;;;10.00;99.90;;;;;;5006002;28;20506;-78
2023/05/20 03:39:05;;;;;;;1.20;0.43;;;9.90;99.90;;;;;;5009445;28;20037;-78
2023/05/20 03:41:32;;;;;;;1.58;0.50;;;10.00;99.90;;;;;;5009187;28;20033;-78
2023/05/20 03:43:58;;;;;;;2.17;0.65;;;9.90;99.90;;;;;;5006739;28;20050;-78
2023/05/20 03:46:24;;;;;;;1.50;0.52;;;10.00;99.90;;;;;;5023089;28;20041;-78
2023/05/20 03:48:50;;;;;;;2.88;0.40;;;9.90;99.90;;;;;;5005173;28;20038;-78
2023/05/20 03:51:15;;;;;;;1.13;0.40;;;9.90;99.90;;;;;;4991427;28;20026;-78
2023/05/20 03:53:41;;;;;;;2.08;0.50;;;9.90;99.90;;;;;;4988505;28;20034;-78
2023/05/20 03:56:07;;;;;;;1.85;0.60;;;9.90;99.90;;;;;;4993665;28;20041;-78
2023/05/20 03:58:37;;;;;;;1.25;0.40;;;10.00;99.90;;;;;;4993273;28;20037;-79
2023/05/20 04:01:04;;;;;;;1.85;0.40;;;9.90;99.90;;;;;;4992969;28;20162;-78
2023/05/20 04:03:30;;;;;;;2.30;0.47;;;10.00;99.90;;;;;;5004888;28;20376;-78
2023/05/20 04:05:55;;;;;;;2.47;0.40;;;10.00;99.90;;;;;;4992165;28;20084;-77
2023/05/20 04:08:24;;;;;;;2.97;0.50;;;10.00;99.90;;;;;;4998007;28;20084;-78
2023/05/20 04:10:54;;;;;;;2.90;0.57;;;10.00;99.90;;;;;;4992563;28;20100;-78
2023/05/20 04:13:20;;;;;;;3.05;0.68;;;10.00;99.90;;;;;;4982592;28;20501;-78
2023/05/20 04:15:46;;;;;;;3.30;0.50;;;10.00;99.90;;;;;;5002716;28;20104;-79
2023/05/20 04:18:13;;;;;;;1.48;0.43;;;10.10;99.90;;;;;;5003043;28;20475;-79
2023/05/20 04:20:43;;;;;;;1.65;0.68;;;10.10;99.90;;;;;;4990754;28;20177;-77
2023/05/20 04:23:11;;;;;;;2.38;0.47;;;10.10;99.90;;;;;;4987833;28;20053;-76
2023/05/20 04:25:37;;;;;;;1.17;0.43;;;10.20;99.90;;;;;;5003307;28;20085;-78
2023/05/20 04:28:03;;;;;;;3.78;0.50;;;10.20;99.90;;;;;;5022181;28;20041;-77
2023/05/20 04:30:32;;;;;;;4.07;0.50;;;10.20;99.90;;;;;;5020834;28;20113;-76
2023/05/20 04:32:58;;;;;;;2.63;0.60;;;10.30;99.90;;;;;;5004496;28;20046;-76
2023/05/20 04:35:24;;;;;;;3.08;0.47;;;10.30;99.90;;;;;;4998215;28;20025;-77
2023/05/20 04:37:53;;;;;;;1.67;0.50;;;10.40;99.90;;;;;;5001951;28;20022;-78
2023/05/20 04:40:20;;;;;;;2.53;0.60;;;10.40;99.90;;;;;;5019847;28;20538;-77
2023/05/20 04:42:45;;;;;;;1.88;0.70;;;10.50;99.90;;;;;;5019191;28;20026;-76
2023/05/20 04:45:12;;;;;;;2.40;0.70;;;10.60;99.90;;;;;;5030670;28;20037;-77
2023/05/20 04:47:39;;;;;;;1.35;0.50;;;10.70;99.90;;;;;;5019653;28;20025;-77
2023/05/20 04:50:09;;;;;;;1.73;0.50;;;10.80;99.90;;;;;;5024039;28;20397;-77
2023/05/20 04:52:36;;;;;;;1.90;0.50;;;10.90;99.90;;;;;;5025289;28;20017;-78
2023/05/20 04:55:02;;;;;;;2.03;0.40;;;11.00;99.90;;;;;;5022621;28;20036;-78
2023/05/20 04:57:28;;;;;;;1.55;0.50;;;11.10;99.90;;;;;;5022791;28;20021;-77
2023/05/20 04:59:57;;;;;;;1.73;0.50;;;11.20;99.90;;;;;;5019181;28;20044;-78
2023/05/20 05:02:24;;;;;;;2.67;0.60;;;11.20;99.90;;;;;;5010046;28;20201;-79
2023/05/20 05:04:49;;;;;;;1.13;0.40;;;11.30;99.90;;;;;;5026021;28;20036;-78
2023/05/20 05:07:15;;;;;;;2.10;0.50;;;11.30;99.90;;;;;;5029865;28;20120;-78
2023/05/20 05:09:41;;;;;;;1.10;0.50;;;11.30;99.90;;;;;;5030633;28;20028;-78
2023/05/20 05:12:07;;;;;;;2.47;0.30;;;11.40;99.90;;;;;;5021797;28;20389;-78
2023/05/20 05:14:32;;;;;;;2.00;0.40;;;11.40;99.90;;;;;;5013739;28;20450;-78
2023/05/20 05:16:58;;;;;;;2.47;0.95;;;11.40;99.90;;;;;;5013848;28;20513;-77
2023/05/20 05:19:23;;;;;;;2.67;0.40;;;11.50;99.90;;;;;;5038782;28;20032;-78
2023/05/20 05:21:50;;;;;;;2.13;0.47;;;11.60;99.90;;;;;;5037841;28;20096;-77
2023/05/20 05:24:16;;;;;;;2.20;0.45;;;11.60;99.90;;;;;;5026460;28;20500;-77
2023/05/20 05:26:41;;;;;;;1.48;0.45;;;11.70;99.90;;;;;;5027430;28;20021;-78
2023/05/20 05:29:08;;;;;;;2.55;0.57;;;11.70;99.90;;;;;;5013727;28;20060;-78
2023/05/20 05:31:33;;;;;;;1.38;0.40;;;11.80;99.90;;;;;;5023857;28;20067;-78
2023/05/20 05:33:59;;;;;;;1.50;0.47;;;11.90;99.90;;;;;;5029304;28;20103;-78
2023/05/20 05:36:25;;;;;;;1.70;0.50;;;12.00;99.90;;;;;;5013351;28;20473;-78
2023/05/20 05:38:51;;;;;;;1.05;0.40;;;12.10;99.90;;;;;;5025345;28;20029;-77
2023/05/20 05:41:16;;;;;;;2.15;0.40;;;12.30;99.90;;;;;;5022438;28;20432;-78
2023/05/20 05:43:42;;;;;;;1.65;0.47;;;12.40;99.90;;;;;;5037699;28;20140;-78
2023/05/20 05:46:08;;;;;;;4.63;0.50;;;12.50;99.90;;;;;;5020915;28;20211;-78
2023/05/20 05:48:37;;;;;;;3.13;0.50;;;12.70;99.90;;;;;;5025423;28;20029;-79
2023/05/20 05:51:03;;;;;;;2.25;0.50;;;12.80;99.90;;;;;;5041526;28;20021;-76
2023/05/20 05:53:29;;;;;;;1.70;0.47;;;12.90;99.90;;;;;;5028974;28;20037;-77
2023/05/20 05:55:55;;;;;;;2.28;0.50;;;13.10;99.90;;;;;;5012498;28;20366;-78
2023/05/20 05:58:21;;;;;;;1.85;0.47;;;13.30;99.90;;;;;;5028440;28;20071;-78
2023/05/20 06:00:55;;;;;;;2.15;0.60;;;13.50;99.90;;;;;;5023770;28;20055;-78
2023/05/20 06:03:20;;;;;;;2.38;0.40;;;13.70;99.90;;;;;;5022519;28;20479;-76
2023/05/20 06:05:46;;;;;;;1.52;0.40;;;13.80;99.90;;;;;;5029864;28;20032;-77
2023/05/20 06:08:12;;;;;;;1.23;0.60;;;14.00;99.90;;;;;;5018502;28;20098;-78
2023/05/20 06:10:37;;;;;;;1.33;0.40;;;14.10;99.90;;;;;;5028173;28;20065;-78
2023/05/20 06:13:03;;;;;;;1.40;0.40;;;14.30;99.90;;;;;;5010998;28;20059;-78
2023/05/20 06:15:30;;;;;;;2.20;0.40;;;14.50;99.90;;;;;;5038061;28;20029;-77
2023/05/20 06:17:55;;;;;;;1.95;0.40;;;14.60;99.90;;;;;;5020869;28;20063;-78
2023/05/20 06:20:21;;;;;;;1.08;0.40;;;14.70;99.90;;;;;;5041010;28;20036;-77
2023/05/20 06:22:47;;;;;;;1.33;0.40;;;14.70;99.90;;;;;;5013038;28;20021;-78
2023/05/20 06:25:13;;;;;;;1.67;0.47;;;14.90;99.90;;;;;;5031201;28;20060;-77
2023/05/20 06:27:39;;;;;;;1.52;0.50;;;15.00;99.90;;;;;;5028233;28;20366;-78
2023/05/20 06:30:08;;;;;;;1.33;0.45;;;15.20;99.90;;;;;;5012968;28;20033;-77
2023/05/20 06:32:34;;;;;;;1.30;0.40;;;15.20;99.90;;;;;;5018987;28;20501;-78
2023/05/20 06:35:00;;;;;;;0.90;0.40;;;15.40;99.90;;;;;;5028310;28;20040;-78
2023/05/20 06:37:25;;;;;;;2.13;0.50;;;15.60;99.90;;;;;;5039175;28;20462;-79
2023/05/20 06:39:52;;;;;;;1.65;0.40;;;15.70;99.90;;;;;;5027486;28;20360;-77
2023/05/20 06:42:20;;;;;;;1.00;0.30;;;16.00;99.90;;;;;;5041083;28;20106;-79
2023/05/20 06:44:48;;;;;;;1.52;0.40;;;16.20;99.90;;;;;;5028815;28;20045;-78
2023/05/20 06:47:30;;;;;;;1.38;0.40;;;16.20;99.90;;;;;;5034647;28;20028;-78
2023/05/20 06:49:56;;;;;;;2.17;0.65;;;16.10;99.90;;;;;;5023216;28;20029;-78
2023/05/20 06:52:25;;;;;;;1.00;0.40;;;16.00;99.90;;;;;;5027962;28;20033;-78
2023/05/20 06:54:51;;;;;;;1.42;0.40;;;16.30;99.90;;;;;;5027617;28;20037;-77
2023/05/20 06:57:18;;;;;;;3.17;0.47;;;16.50;99.90;;;;;;5040407;28;20103;-78
2023/05/20 06:59:43;;;;;;;3.25;0.40;;;16.60;99.90;;;;;;5025899;28;20059;-77
2023/05/20 07:02:10;;;;;;;1.45;0.40;;;16.60;99.90;;;;;;5028956;28;20471;-78
2023/05/20 07:04:36;;;;;;;2.42;0.40;;;16.70;99.90;;;;;;5022123;28;20056;-78
2023/05/20 07:07:02;;;;;;;1.50;0.40;;;16.80;99.90;;;;;;5028858;28;20087;-78
2023/05/20 07:09:28;;;;;;;1.73;0.63;;;17.10;99.90;;;;;;5027449;28;20025;-76
2023/05/20 07:11:53;;;;;;;3.30;0.40;;;17.20;99.90;;;;;;5027803;28;20037;-78
2023/05/20 07:14:20;;;;;;;1.55;0.50;;;17.20;99.90;;;;;;5017851;28;20052;-78
2023/05/20 07:16:46;;;;;;;1.30;0.40;;;17.20;99.90;;;;;;5027937;28;20030;-77
2023/05/20 07:19:13;;;;;;;1.67;0.40;;;17.40;99.90;;;;;;5021847;28;20029;-78
2023/05/20 07:21:38;;;;;;;1.30;0.40;;;17.30;99.90;;;;;;5042889;28;20214;-78
2023/05/20 07:24:24;;;;;;;1.73;0.50;;;17.70;99.90;;;;;;5020601;28;20052;-78
2023/05/20 07:26:50;;;;;;;2.58;0.40;;;17.50;99.90;;;;;;5024372;28;20447;-78
2023/05/20 07:29:16;;;;;;;1.38;0.40;;;17.60;99.90;;;;;;5010065;28;20036;-78
2023/05/20 07:31:42;;;;;;;1.15;0.40;;;17.70;99.90;;;;;;5016644;28;20488;-78
2023/05/20 07:34:07;;;;;;;2.30;0.50;;;17.70;99.90;;;;;;5042743;28;20103;-78
2023/05/20 07:36:33;;;;;;;1.10;0.40;;;17.70;99.90;;;;;;5027097;28;20120;-77
2023/05/20 07:39:03;;;;;;;1.30;0.40;;;18.00;99.90;;;;;;5026802;28;20187;-78
2023/05/20 07:41:30;;;;;;;0.88;0.38;;;18.30;99.90;;;;;;5010639;28;20056;-77
2023/05/20 07:43:56;;;;;;;1.70;0.40;;;18.20;99.90;;;;;;5028167;28;20650;-77
2023/05/20 07:46:22;;;;;;;1.33;0.43;;;18.30;99.90;;;;;;5027926;28;20029;-77
2023/05/20 07:48:48;;;;;;;1.70;0.30;;;18.30;99.90;;;;;;5024761;28;20160;-78
2023/05/20 07:51:14;;;;;;;1.30;0.40;;;18.80;99.90;;;;;;5028610;28;20050;-78
2023/05/20 07:53:40;;;;;;;0.93;0.50;;;18.70;99.90;;;;;;5030995;28;20083;-78
2023/05/20 07:56:06;;;;;;;2.45;0.50;;;18.80;99.90;;;;;;5032340;28;20029;-78
2023/05/20 07:58:31;;;;;;;1.52;0.65;;;18.90;99.90;;;;;;5032764;28;20074;-78
2023/05/20 08:00:57;;;;;;;1.42;0.43;;;18.60;99.90;;;;;;5031865;28;20021;-77
2023/05/20 08:03:24;;;;;;;1.45;0.40;;;18.80;99.90;;;;;;5022710;28;20025;-78
2023/05/20 08:06:10;;;;;;;1.25;0.40;;;18.80;99.90;;;;;;5044593;28;20393;-78
2023/05/20 08:08:35;;;;;;;3.00;0.40;;;18.80;99.90;;;;;;5027064;28;20051;-78
2023/05/20 08:11:07;;;;;;;1.45;0.30;;;18.90;99.90;;;;;;5029265;28;20029;-80
2023/05/20 08:13:33;;;;;;;1.50;0.50;;;19.00;99.90;;;;;;5036522;28;20052;-80
2023/05/20 08:16:00;;;;;;;1.83;0.40;;;19.20;99.90;;;;;;5030196;28;20108;-79
2023/05/20 08:18:26;;;;;;;1.55;0.43;;;19.10;99.90;;;;;;5043961;28;20116;-79
2023/05/20 08:20:54;;;;;;;2.63;0.40;;;19.30;99.90;;;;;;5029341;28;20053;-80
2023/05/20 08:23:19;;;;;;;1.05;0.40;;;19.30;99.90;;;;;;5044483;28;20017;-80
2023/05/20 08:25:48;;;;;;;1.40;0.40;;;18.90;99.90;;;;;;5029683;28;20538;-78
2023/05/20 08:28:15;;;;;;;3.58;0.50;;;19.00;99.90;;;;;;5017048;28;20032;-79
2023/05/20 08:30:40;;;;;;;2.55;0.40;;;19.00;99.90;;;;;;5027164;28;20051;-78
2023/05/20 08:33:09;;;;;;;2.30;0.73;;;18.90;99.90;;;;;;5027358;28;20029;-79
2023/05/20 08:35:38;;;;;;;2.38;0.30;;;19.30;99.90;;;;;;5029027;28;20126;-78
2023/05/20 08:38:04;;;;;;;1.00;0.40;;;19.40;99.90;;;;;;5027580;28;20458;-79
2023/05/20 08:40:30;;;;;;;2.55;0.38;;;19.50;99.90;;;;;;5013599;28;20124;-79
2023/05/20 08:42:58;;;;;;;1.67;0.30;;;19.60;99.90;;;;;;5029688;28;20116;-79
2023/05/20 08:45:27;;;;;;;1.77;0.40;;;19.90;99.90;;;;;;5027143;28;20147;-78
2023/05/20 08:47:54;;;;;;;3.92;0.60;;;19.70;99.90;;;;;;5018397;28;20056;-79
2023/05/20 08:50:21;;;;;;;0.85;0.30;;;19.40;99.90;;;;;;5027906;28;20064;-79
2023/05/20 08:52:48;;;;;;;1.77;0.30;;;19.60;99.90;;;;;;5024761;28;20256;-77
2023/05/20 08:55:25;;;;;;;1.35;0.40;;;19.50;99.90;;;;;;5044760;28;20508;-79
2023/05/20 08:57:53;;;;;;;1.13;0.30;;;19.70;99.90;;;;;;5030810;28;20359;-77
2023/05/20 09:00:26;;;;;;;1.75;0.35;;;19.90;99.90;;;;;;5027223;28;20029;-78
2023/05/20 09:02:52;;;;;;;2.67;0.30;;;20.10;99.90;;;;;;5035286;28;20032;-79
2023/05/20 09:05:18;;;;;;;2.00;0.30;;;20.30;99.90;;;;;;5044321;28;20028;-78
2023/05/20 09:07:44;;;;;;;1.77;0.30;;;20.20;99.90;;;;;;5042625;28;20363;-77
2023/05/20 09:10:10;;;;;;;2.05;0.30;;;20.30;99.90;;;;;;5023111;28;20536;-79
2023/05/20 09:12:37;;;;;;;1.52;0.30;;;20.70;99.90;;;;;;5029222;28;20021;-79
2023/05/20 09:15:03;;;;;;;1.00;0.30;;;20.50;99.90;;;;;;5021317;28;20257;-79
2023/05/20 09:17:29;;;;;;;1.50;0.30;;;20.30;99.90;;;;;;5028867;28;20568;-78
2023/05/20 09:19:55;;;;;;;0.85;0.32;;;20.00;99.90;;;;;;5029233;28;20086;-80
2023/05/20 09:22:26;;;;;;;1.13;0.30;;;19.70;99.90;;;;;;5029401;28;20033;-78
2023/05/20 09:24:52;;;;;;;3.70;0.30;;;20.20;99.90;;;;;;5044249;28;20465;-78
2023/05/20 09:27:19;;;;;;;1.05;0.30;;;19.90;99.90;;;;;;5028716;28;20052;-79
2023/05/20 09:29:49;;;;;;;0.93;0.30;;;19.90;99.90;;;;;;5016532;28;20385;-78
2023/05/20 09:32:15;;;;;;;0.80;0.30;;;20.30;99.90;;;;;;5030268;28;20037;-78
2023/05/20 09:34:41;;;;;;;1.15;0.30;;;20.50;99.90;;;;;;5026365;28;20045;-78
2023/05/20 09:37:08;;;;;;;1.27;0.40;;;20.40;99.90;;;;;;5026112;28;20060;-79
2023/05/20 09:39:58;;;;;;;1.85;0.40;;;20.00;99.90;;;;;;5022415;28;20040;-78
2023/05/20 09:42:41;;;;;;;2.85;0.30;;;19.90;99.90;;;;;;5039903;28;20044;-79
2023/05/20 09:45:10;;;;;;;1.88;0.30;;;20.00;99.90;;;;;;5038253;28;20053;-79
2023/05/20 09:47:38;;;;;;;1.50;0.30;;;20.20;99.90;;;;;;5013268;28;20112;-79
2023/05/20 09:50:07;;;;;;;1.33;0.28;;;20.00;99.90;;;;;;5027195;28;20081;-79
2023/05/20 09:52:36;;;;;;;1.23;0.30;;;20.00;99.90;;;;;;5044819;28;20421;-79
2023/05/20 09:55:05;;;;;;;0.70;0.30;;;20.40;99.90;;;;;;5030205;28;20037;-79
2023/05/20 09:57:35;;;;;;;;;;;20.80;99.90;;;;;;5036127;28;20021;-79
2023/05/20 10:00:01;;;;;;;0.75;0.30;;;20.60;99.90;;;;;;5042199;28;19912;-77
2023/05/20 10:02:28;;;;;;;2.80;0.30;;;20.70;99.90;;;;;;5042669;28;20162;-81
2023/05/20 10:04:56;;;;;;;1.73;0.40;;;20.50;99.90;;;;;;5011064;28;20070;-78
2023/05/20 10:07:33;;;;;;;2.63;0.30;;;20.40;99.90;;;;;;5045218;28;20052;-79
2023/05/20 10:09:59;;;;;;;1.65;0.32;;;20.60;99.90;;;;;;5043445;28;20594;-79
2023/05/20 10:12:42;;;;;;;1.58;0.30;;;20.50;99.90;;;;;;5028971;28;20029;-79
2023/05/20 10:15:29;;;;;;;1.75;0.20;;;20.70;99.90;;;;;;5024366;28;20240;-78
2023/05/20 10:18:20;;;;;;;1.13;0.30;;;20.90;99.90;;;;;;5029385;28;20056;-79
2023/05/20 10:20:50;;;;;;;3.55;0.30;;;20.70;99.90;;;;;;5024780;28;20029;-78
2023/05/20 10:23:29;;;;;;;0.80;0.30;;;21.00;99.90;;;;;;5028917;28;20084;-79
2023/05/20 10:25:57;;;;;;;1.42;0.30;;;20.40;99.90;;;;;;5040266;28;20355;-79
2023/05/20 10:28:29;;;;;;;1.00;0.30;;;20.70;99.90;;;;;;5025197;28;20409;-79
2023/05/20 10:30:56;;;;;;;1.38;0.30;;;20.90;99.90;;;;;;5025626;28;20457;-79
2023/05/20 10:33:21;;;;;;;1.90;0.40;;;20.80;99.90;;;;;;5034330;28;20025;-79
2023/05/20 10:35:51;;;;;;;1.63;0.30;;;19.80;99.90;;;;;;5025960;28;20545;-79
2023/05/20 10:38:17;;;;;;;0.88;0.30;;;20.30;99.90;;;;;;5026512;28;20025;-78
2023/05/20 10:40:42;;;;;;;1.92;0.30;;;20.70;99.90;;;;;;5011915;28;20029;-78
2023/05/20 10:43:13;;;;;;;3.10;0.20;;;21.20;99.90;;;;;;5042798;28;20039;-80
2023/05/20 10:45:54;;;;;;;1.23;0.25;;;21.50;99.90;;;;;;5042372;28;20120;-79
2023/05/20 10:48:31;;;;;;;0.98;0.30;;;21.60;99.90;;;;;;5044698;28;20400;-80
2023/05/20 10:51:05;;;;;;;1.25;0.20;;;21.40;99.90;;;;;;5024253;28;20052;-80
2023/05/20 10:53:43;;;;;;;0.63;0.30;;;21.60;99.90;;;;;;5026538;28;20512;-79
2023/05/20 10:56:17;;;;;;;1.52;0.32;;;21.30;99.90;;;;;;5026212;28;20022;-79
2023/05/20 10:58:43;;;;;;;1.73;0.20;;;20.60;99.90;;;;;;5025367;28;20393;-80
2023/05/20 11:01:10;;;;;;;1.05;0.20;;;20.30;99.90;;;;;;5045207;28;20021;-80
2023/05/20 11:03:36;;;;;;;0.80;0.40;;;20.50;99.90;;;;;;5024232;28;20035;-80
2023/05/20 11:06:09;;;;;;;0.40;0.20;;;20.50;99.90;;;;;;5027117;28;20025;-80
2023/05/20 11:08:35;;;;;;;0.90;0.20;;;20.60;99.90;;;;;;5025746;28;20061;-80
2023/05/20 11:11:01;;;;;;;0.68;0.20;;;20.80;99.90;;;;;;5025957;28;20052;-80
2023/05/20 11:13:26;;;;;;;0.95;0.20;;;20.60;99.90;;;;;;5011614;28;20037;-80
2023/05/20 11:15:54;;;;;;;0.95;0.20;;;20.70;99.90;;;;;;5011469;28;20473;-80
2023/05/20 11:18:20;;;;;;;0.60;0.20;;;20.80;99.90;;;;;;5018122;28;20048;-80
2023/05/20 11:20:46;;;;;;;1.00;0.30;;;21.00;99.90;;;;;;5040198;28;20483;-79
2023/05/20 11:23:13;;;;;;;0.65;0.20;;;20.90;99.90;;;;;;5040988;28;20025;-80
2023/05/20 11:25:39;;;;;;;0.80;0.20;;;20.70;99.90;;;;;;5012887;28;20029;-80
2023/05/20 11:28:12;;;;;;;1.27;0.20;;;21.00;99.90;;;;;;5027186;28;20030;-80
2023/05/20 11:30:40;;;;;;;0.75;0.20;;;21.40;99.90;;;;;;5048070;28;20072;-79
2023/05/20 11:33:05;;;;;;;0.70;0.20;;;21.40;99.90;;;;;;5028298;28;20108;-79
2023/05/20 11:35:32;;;;;;;1.80;0.20;;;21.30;99.90;;;;;;5046222;28;20128;-80
2023/05/20 11:38:06;;;;;;;0.43;0.20;;;21.10;99.90;;;;;;5028276;28;20031;-79
2023/05/20 11:40:33;;;;;;;0.45;0.10;;;21.10;99.90;;;;;;5045016;28;20021;-80
2023/05/20 11:43:00;;;;;;;0.47;0.20;;;20.90;99.90;;;;;;5030646;28;20029;-79
2023/05/20 11:45:26;;;;;;;0.50;0.20;;;21.30;99.90;;;;;;5044142;28;20033;-79
2023/05/20 11:48:05;;;;;;;0.73;0.20;;;21.00;99.90;;;;;;5046443;28;20272;-79
2023/05/20 11:50:49;;;;;;;0.60;0.20;;;21.10;99.90;;;;;;5039017;28;20025;-80
2023/05/20 11:53:20;;;;;;;0.93;0.20;;;20.90;99.90;;;;;;5022747;28;20489;-79
2023/05/20 11:55:48;;;;;;;0.50;0.20;;;21.10;99.90;;;;;;5047573;28;20039;-80
2023/05/20 11:58:42;;;;;;;0.75;0.20;;;21.20;99.90;;;;;;5038521;28;20212;-80
2023/05/20 12:01:08;;;;;;;0.80;0.20;;;21.00;99.90;;;;;;5028073;28;20042;-80
2023/05/20 12:03:36;;;;;;;1.00;0.20;;;20.90;99.90;;;;;;5014730;28;20079;-79
2023/05/20 12:06:03;;;;;;;0.47;0.20;;;21.10;99.90;;;;;;5045689;28;20029;-79
2023/05/20 12:08:28;;;;;;;0.63;0.20;;;21.10;99.90;;;;;;5037997;28;20029;-79
2023/05/20 12:10:54;;;;;;;1.27;0.20;;;21.10;99.90;;;;;;5015451;28;20354;-80
2023/05/20 12:13:22;;;;;;;0.93;0.20;;;21.20;99.90;;;;;;5045149;28;20056;-79
2023/05/20 12:15:47;;;;;;;1.02;0.20;;;20.90;99.90;;;;;;5043943;28;20113;-79
2023/05/20 12:18:13;;;;;;;0.70;0.20;;;20.80;99.90;;;;;;5031879;28;20092;-80
2023/05/20 12:20:39;;;;;;;1.85;0.20;;;21.00;99.90;;;;;;5030028;28;20051;-79
2023/05/20 12:23:05;;;;;;;2.83;0.20;;;21.30;99.90;;;;;;5039014;28;20068;-79
2023/05/20 12:25:31;;;;;;;0.70;0.20;;;21.10;99.90;;;;;;5046435;28;20465;-79
2023/05/20 12:27:57;;;;;;;0.70;0.20;;;21.20;99.90;;;;;;5027265;28;20052;-79
2023/05/20 12:30:23;;;;;;;0.35;0.20;;;21.30;99.90;;;;;;5028354;28;20022;-80
2023/05/20 12:32:50;;;;;;;0.50;0.20;;;21.50;99.90;;;;;;5044291;28;20021;-79
2023/05/20 12:35:18;;;;;;;0.63;0.20;;;21.30;99.90;;;;;;5013547;28;20039;-79
2023/05/20 12:37:44;;;;;;;0.60;0.20;;;21.30;99.90;;;;;;5042186;28;20026;-78
2023/05/20 12:40:11;;;;;;;1.17;0.20;;;21.40;99.90;;;;;;5030764;28;20079;-78
2023/05/20 12:42:38;;;;;;;0.85;0.20;;;21.60;99.90;;;;;;5046437;28;20037;-79
2023/05/20 12:45:05;;;;;;;0.70;0.20;;;21.70;99.90;;;;;;5029585;28;20121;-78
2023/05/20 12:47:31;;;;;;;1.25;0.30;;;21.90;99.90;;;;;;5025490;28;20044;-79
2023/05/20 12:49:58;;;;;;;1.25;0.20;;;21.70;99.90;;;;;;5045032;28;20082;-80